You are here

Stations

Station Name Date Time Temperature Relative Humidity Precipitation Wind Speed Wind Direction Create Custom Report Daily Report Hourly Report
Aberdeen VTcr 2020-25-09 17:00 72.4 86.00 0.06 1.07 WNW
Bee Lake 2020-25-09 17:00 70.8 85.10 0.06 1.21 W
Brooksville 2020-25-09 17:00 70.3 90.20 0.00 2.42 NW
Brooksville2 VTso 2020-25-09 17:00 70.7 91.20 0.00
Brown Loam Exp Stn VT 2020-25-09 17:-1
Brown Loam Exp. Stn. 2020-25-09 17:00 71.2 91.80 0.00 1.98 NW
Clarksdale VTso 2020-25-09 17:00 70.0 87.00 0.04
Cleveland 2020-25-09 17:00 71.1 84.60 0.00 4.09 NNE
Coastal Res & Ext Cnt 2020-25-09 17:00 78.0 80.90 0.00 2.91 SW
COOP Stoneville 2020-24-09 8:00 63.0 97 4.24
Cooper Farm 2020-25-09 17:00 73.8 74.12 0.00 2.45 NNW
Home Cypress Farm 2020-25-09 17:00 71.3 84.10 0.01 1.98 NW
Longwood VTso 2020-25-09 17:00 73.7 69.51 0.00
Lyon 2020-25-09 17:00 71.3 83.20 0.01 1.27 WSW
Macon VTcr 2020-25-09 17:00 70.9 94.90 0.01 2.77 N
Mantee VT 2020-25-09 17:00 72.1 86.80 0.01 0.00 WNW
Money 2020-25-09 17:00 71.5 80.80 0.00 1.59 WNW
Mound Bayou 2020-25-09 17:00 70.8 87.10 0.01 1.18 NNW
MSU North Farm Starkv 2020-25-09 17:00 69.0 93.90 0.01 1.79 SW
Natchez 2020-25-09 17:00 71.7 87.90 0.00 3.15 NE
Olive Branch VTcr 2020-25-09 17:00 69.7 88.30 0.00 0.04 NW
Olive Branch2 VTso 2020-25-09 17:00 69.4 86.20 0.00
Onward VT 2020-25-09 17:00 73.8 79.41 0.00
Pontotoc AWS COOP 2020-25-09 17:-1
Pontotoc Exp Stn 2020-25-09 17:00 71.2 87.70 0.01 1.60 W
Prairie 2020-25-09 17:00 71.3 100.00 0.02 1.88 WNW
Sidon 2020-25-09 17:00 70.6 87.90 0.00 2.15 SW
Stoneville AWS 2020-25-09 17:00 72.1 74.87 0.00 0.53 WNW
Stoneville F10 2020-25-09 17:00 73.0 0.42 0.00 0.00 N
Stoneville W 2020-25-09 17:00 73.5 78.16 0.00 2.45 N
Stoneville_F8 2020-25-09 17:00 72.0 78.44 0.00 0.76 ESE
Stoneville_SW 2020-25-09 17:00 73.2 75.68 0.00 0.52 E
Thighman 2020-25-09 17:00 72.5 82.70 0.00 1.10 N
Tippo VT 2020-25-09 17:00 72.1 83.60 0.01
Tribbett 2020-25-09 17:00 73.0 77.15 0.00 0.30 N
Tunica 2020-25-09 17:00 70.3 80.80 0.00 1.58 NNE
Verona 2020-25-09 17:00 72.7 84.90 0.00 2.26 NNW
Verona VTso 2020-25-09 17:00 71.3 85.40 0.02
Vicksburg 2020-25-09 17:00 71.3 84.50 0.02 1.25 W
Money VT 2020-26-05 1:15 75.4 82.00 0.00 8.92 ESE
Back to Top